sensor_id;sensor_type;location;lat;lon;timestamp;P1;durP1;ratioP1;P2;durP2;ratioP2
32321;SDS011;61553;48.994;8.940;2023-10-09T00:03:43;16.10;;;6.35;;
32321;SDS011;61553;48.994;8.940;2023-10-09T00:06:19;52.20;;;21.15;;
32321;SDS011;61553;48.994;8.940;2023-10-09T00:08:55;71.93;;;29.90;;
32321;SDS011;61553;48.994;8.940;2023-10-09T00:11:21;25.27;;;11.45;;
32321;SDS011;61553;48.994;8.940;2023-10-09T00:13:51;17.85;;;6.22;;
32321;SDS011;61553;48.994;8.940;2023-10-09T00:16:22;14.02;;;5.72;;
32321;SDS011;61553;48.994;8.940;2023-10-09T00:19:02;13.02;;;4.53;;
32321;SDS011;61553;48.994;8.940;2023-10-09T00:21:48;17.80;;;5.53;;
32321;SDS011;61553;48.994;8.940;2023-10-09T00:24:15;16.88;;;5.43;;
32321;SDS011;61553;48.994;8.940;2023-10-09T00:26:48;14.73;;;5.90;;
32321;SDS011;61553;48.994;8.940;2023-10-09T00:29:20;19.10;;;5.80;;
32321;SDS011;61553;48.994;8.940;2023-10-09T00:31:48;12.93;;;5.00;;
32321;SDS011;61553;48.994;8.940;2023-10-09T00:34:26;18.25;;;6.88;;
32321;SDS011;61553;48.994;8.940;2023-10-09T00:36:51;22.90;;;9.40;;
32321;SDS011;61553;48.994;8.940;2023-10-09T00:39:21;21.98;;;8.73;;
32321;SDS011;61553;48.994;8.940;2023-10-09T00:42:07;24.23;;;7.55;;
32321;SDS011;61553;48.994;8.940;2023-10-09T00:44:37;13.85;;;5.53;;
32321;SDS011;61553;48.994;8.940;2023-10-09T00:47:07;16.45;;;6.18;;
32321;SDS011;61553;48.994;8.940;2023-10-09T00:49:58;14.38;;;6.03;;
32321;SDS011;61553;48.994;8.940;2023-10-09T00:52:30;17.25;;;4.93;;
32321;SDS011;61553;48.994;8.940;2023-10-09T00:55:01;15.65;;;5.40;;
32321;SDS011;61553;48.994;8.940;2023-10-09T00:57:38;12.73;;;4.70;;
32321;SDS011;61553;48.994;8.940;2023-10-09T01:00:21;11.25;;;4.60;;
32321;SDS011;61553;48.994;8.940;2023-10-09T01:03:05;11.05;;;4.30;;
32321;SDS011;61553;48.994;8.940;2023-10-09T01:05:43;13.77;;;4.78;;
32321;SDS011;61553;48.994;8.940;2023-10-09T01:08:26;14.60;;;4.88;;
32321;SDS011;61553;48.994;8.940;2023-10-09T01:11:00;20.95;;;4.43;;
32321;SDS011;61553;48.994;8.940;2023-10-09T01:13:38;13.65;;;4.68;;
32321;SDS011;61553;48.994;8.940;2023-10-09T01:16:06;19.23;;;5.07;;
32321;SDS011;61553;48.994;8.940;2023-10-09T01:18:38;15.13;;;5.53;;
32321;SDS011;61553;48.994;8.940;2023-10-09T01:21:06;10.98;;;4.70;;
32321;SDS011;61553;48.994;8.940;2023-10-09T01:23:31;15.60;;;5.35;;
32321;SDS011;61553;48.994;8.940;2023-10-09T01:25:57;15.25;;;5.68;;
32321;SDS011;61553;48.994;8.940;2023-10-09T01:28:22;13.02;;;4.85;;
32321;SDS011;61553;48.994;8.940;2023-10-09T01:30:49;16.13;;;4.72;;
32321;SDS011;61553;48.994;8.940;2023-10-09T01:33:16;19.05;;;6.07;;
32321;SDS011;61553;48.994;8.940;2023-10-09T01:35:49;14.00;;;5.30;;
32321;SDS011;61553;48.994;8.940;2023-10-09T01:38:20;16.33;;;5.43;;
32321;SDS011;61553;48.994;8.940;2023-10-09T01:40:56;11.20;;;5.20;;
32321;SDS011;61553;48.994;8.940;2023-10-09T01:43:28;12.07;;;4.78;;
32321;SDS011;61553;48.994;8.940;2023-10-09T01:45:57;15.18;;;4.45;;
32321;SDS011;61553;48.994;8.940;2023-10-09T01:48:26;15.80;;;5.13;;
32321;SDS011;61553;48.994;8.940;2023-10-09T01:50:52;12.52;;;5.25;;
32321;SDS011;61553;48.994;8.940;2023-10-09T01:53:18;16.40;;;5.22;;
32321;SDS011;61553;48.994;8.940;2023-10-09T01:55:47;13.40;;;4.90;;
32321;SDS011;61553;48.994;8.940;2023-10-09T01:58:14;12.63;;;5.28;;
32321;SDS011;61553;48.994;8.940;2023-10-09T02:00:46;13.10;;;5.87;;
32321;SDS011;61553;48.994;8.940;2023-10-09T02:03:22;17.27;;;5.38;;
32321;SDS011;61553;48.994;8.940;2023-10-09T02:05:51;17.60;;;5.47;;
32321;SDS011;61553;48.994;8.940;2023-10-09T02:08:25;14.68;;;5.05;;
32321;SDS011;61553;48.994;8.940;2023-10-09T02:10:52;13.43;;;5.18;;
32321;SDS011;61553;48.994;8.940;2023-10-09T02:13:21;16.05;;;5.32;;
32321;SDS011;61553;48.994;8.940;2023-10-09T02:15:59;13.77;;;4.75;;
32321;SDS011;61553;48.994;8.940;2023-10-09T02:18:41;13.43;;;5.20;;
32321;SDS011;61553;48.994;8.940;2023-10-09T02:21:21;14.45;;;5.07;;
32321;SDS011;61553;48.994;8.940;2023-10-09T02:24:05;14.50;;;5.47;;
32321;SDS011;61553;48.994;8.940;2023-10-09T02:26:37;13.02;;;4.60;;
32321;SDS011;61553;48.994;8.940;2023-10-09T02:29:03;15.52;;;5.03;;
32321;SDS011;61553;48.994;8.940;2023-10-09T02:31:40;13.32;;;5.28;;
32321;SDS011;61553;48.994;8.940;2023-10-09T02:34:08;17.52;;;5.38;;
32321;SDS011;61553;48.994;8.940;2023-10-09T02:36:35;18.38;;;5.57;;
32321;SDS011;61553;48.994;8.940;2023-10-09T02:39:08;18.08;;;5.65;;
32321;SDS011;61553;48.994;8.940;2023-10-09T02:41:54;15.90;;;5.13;;
32321;SDS011;61553;48.994;8.940;2023-10-09T02:44:27;18.02;;;5.70;;
32321;SDS011;61553;48.994;8.940;2023-10-09T02:46:59;16.42;;;5.38;;
32321;SDS011;61553;48.994;8.940;2023-10-09T02:49:30;13.88;;;5.43;;
32321;SDS011;61553;48.994;8.940;2023-10-09T02:51:56;15.93;;;6.10;;
32321;SDS011;61553;48.994;8.940;2023-10-09T02:54:21;14.40;;;5.43;;
32321;SDS011;61553;48.994;8.940;2023-10-09T02:56:47;15.70;;;5.63;;
32321;SDS011;61553;48.994;8.940;2023-10-09T02:59:21;15.18;;;5.28;;
32321;SDS011;61553;48.994;8.940;2023-10-09T03:01:48;16.05;;;5.90;;
32321;SDS011;61553;48.994;8.940;2023-10-09T03:04:14;12.55;;;5.70;;
32321;SDS011;61553;48.994;8.940;2023-10-09T03:06:40;16.15;;;6.25;;
32321;SDS011;61553;48.994;8.940;2023-10-09T03:09:19;12.15;;;5.60;;
32321;SDS011;61553;48.994;8.940;2023-10-09T03:11:59;14.52;;;6.05;;
32321;SDS011;61553;48.994;8.940;2023-10-09T03:14:29;17.23;;;5.85;;
32321;SDS011;61553;48.994;8.940;2023-10-09T03:16:56;12.75;;;5.00;;
32321;SDS011;61553;48.994;8.940;2023-10-09T03:19:23;20.02;;;5.50;;
32321;SDS011;61553;48.994;8.940;2023-10-09T03:21:53;13.65;;;5.38;;
32321;SDS011;61553;48.994;8.940;2023-10-09T03:24:22;16.08;;;5.63;;
32321;SDS011;61553;48.994;8.940;2023-10-09T03:26:52;12.77;;;5.28;;
32321;SDS011;61553;48.994;8.940;2023-10-09T03:29:21;12.20;;;5.63;;
32321;SDS011;61553;48.994;8.940;2023-10-09T03:31:46;14.95;;;5.32;;
32321;SDS011;61553;48.994;8.940;2023-10-09T03:34:15;11.23;;;4.90;;
32321;SDS011;61553;48.994;8.940;2023-10-09T03:36:41;15.73;;;6.35;;
32321;SDS011;61553;48.994;8.940;2023-10-09T03:39:08;16.30;;;6.00;;
32321;SDS011;61553;48.994;8.940;2023-10-09T03:41:53;14.82;;;6.28;;
32321;SDS011;61553;48.994;8.940;2023-10-09T03:44:22;17.08;;;6.68;;
32321;SDS011;61553;48.994;8.940;2023-10-09T03:46:48;13.07;;;6.18;;
32321;SDS011;61553;48.994;8.940;2023-10-09T03:49:16;14.52;;;6.18;;
32321;SDS011;61553;48.994;8.940;2023-10-09T03:51:48;18.98;;;6.28;;
32321;SDS011;61553;48.994;8.940;2023-10-09T03:54:14;17.95;;;6.05;;
32321;SDS011;61553;48.994;8.940;2023-10-09T03:56:40;18.75;;;6.00;;
32321;SDS011;61553;48.994;8.940;2023-10-09T03:59:06;16.00;;;5.88;;
32321;SDS011;61553;48.994;8.940;2023-10-09T04:01:35;17.60;;;6.15;;
32321;SDS011;61553;48.994;8.940;2023-10-09T04:04:05;14.73;;;5.20;;
32321;SDS011;61553;48.994;8.940;2023-10-09T04:06:32;17.55;;;5.82;;
32321;SDS011;61553;48.994;8.940;2023-10-09T04:08:59;15.75;;;6.22;;
32321;SDS011;61553;48.994;8.940;2023-10-09T04:11:52;16.63;;;6.05;;
32321;SDS011;61553;48.994;8.940;2023-10-09T04:14:42;16.17;;;4.80;;
32321;SDS011;61553;48.994;8.940;2023-10-09T04:17:20;18.02;;;5.47;;
32321;SDS011;61553;48.994;8.940;2023-10-09T04:19:55;17.17;;;5.30;;
32321;SDS011;61553;48.994;8.940;2023-10-09T04:22:40;13.98;;;5.18;;
32321;SDS011;61553;48.994;8.940;2023-10-09T04:25:35;17.02;;;5.55;;
32321;SDS011;61553;48.994;8.940;2023-10-09T04:28:08;12.68;;;4.88;;
32321;SDS011;61553;48.994;8.940;2023-10-09T04:30:38;18.23;;;5.15;;
32321;SDS011;61553;48.994;8.940;2023-10-09T04:33:14;13.48;;;5.60;;
32321;SDS011;61553;48.994;8.940;2023-10-09T04:36:08;15.30;;;5.88;;
32321;SDS011;61553;48.994;8.940;2023-10-09T04:38:43;13.07;;;5.30;;
32321;SDS011;61553;48.994;8.940;2023-10-09T04:41:21;19.55;;;5.70;;
32321;SDS011;61553;48.994;8.940;2023-10-09T04:43:55;17.80;;;6.85;;
32321;SDS011;61553;48.994;8.940;2023-10-09T04:46:39;16.20;;;5.50;;
32321;SDS011;61553;48.994;8.940;2023-10-09T04:49:31;14.55;;;5.07;;
32321;SDS011;61553;48.994;8.940;2023-10-09T04:52:17;15.25;;;6.15;;
32321;SDS011;61553;48.994;8.940;2023-10-09T04:55:04;18.58;;;5.00;;
32321;SDS011;61553;48.994;8.940;2023-10-09T04:57:39;21.38;;;5.75;;
32321;SDS011;61553;48.994;8.940;2023-10-09T05:00:09;17.45;;;4.88;;
32321;SDS011;61553;48.994;8.940;2023-10-09T05:02:51;19.90;;;5.33;;
32321;SDS011;61553;48.994;8.940;2023-10-09T05:05:26;16.02;;;5.53;;
32321;SDS011;61553;48.994;8.940;2023-10-09T05:08:11;18.52;;;5.90;;
32321;SDS011;61553;48.994;8.940;2023-10-09T05:10:53;18.88;;;6.93;;
32321;SDS011;61553;48.994;8.940;2023-10-09T05:13:31;27.88;;;13.25;;
32321;SDS011;61553;48.994;8.940;2023-10-09T05:16:04;27.63;;;12.07;;
32321;SDS011;61553;48.994;8.940;2023-10-09T05:18:30;19.70;;;9.05;;
32321;SDS011;61553;48.994;8.940;2023-10-09T05:21:02;31.98;;;13.68;;
32321;SDS011;61553;48.994;8.940;2023-10-09T05:23:38;23.45;;;9.98;;
32321;SDS011;61553;48.994;8.940;2023-10-09T05:26:17;27.42;;;10.40;;
32321;SDS011;61553;48.994;8.940;2023-10-09T05:29:06;23.02;;;10.30;;
32321;SDS011;61553;48.994;8.940;2023-10-09T05:31:47;31.02;;;17.48;;
32321;SDS011;61553;48.994;8.940;2023-10-09T05:34:34;37.03;;;17.25;;
32321;SDS011;61553;48.994;8.940;2023-10-09T05:37:05;39.05;;;18.52;;
32321;SDS011;61553;48.994;8.940;2023-10-09T05:39:53;119.10;;;48.70;;
32321;SDS011;61553;48.994;8.940;2023-10-09T05:42:43;49.78;;;21.50;;
32321;SDS011;61553;48.994;8.940;2023-10-09T05:45:10;79.50;;;36.88;;
32321;SDS011;61553;48.994;8.940;2023-10-09T05:47:44;61.10;;;24.98;;
32321;SDS011;61553;48.994;8.940;2023-10-09T05:50:19;81.30;;;31.48;;
32321;SDS011;61553;48.994;8.940;2023-10-09T05:52:51;28.10;;;14.70;;
32321;SDS011;61553;48.994;8.940;2023-10-09T05:55:18;23.85;;;9.63;;
32321;SDS011;61553;48.994;8.940;2023-10-09T05:58:02;52.90;;;23.60;;
32321;SDS011;61553;48.994;8.940;2023-10-09T06:00:28;35.67;;;16.92;;
32321;SDS011;61553;48.994;8.940;2023-10-09T06:03:12;25.83;;;10.90;;
32321;SDS011;61553;48.994;8.940;2023-10-09T06:05:53;22.70;;;10.00;;
32321;SDS011;61553;48.994;8.940;2023-10-09T06:08:26;17.77;;;7.30;;
32321;SDS011;61553;48.994;8.940;2023-10-09T06:11:07;22.40;;;6.65;;
32321;SDS011;61553;48.994;8.940;2023-10-09T06:13:53;15.43;;;7.10;;
32321;SDS011;61553;48.994;8.940;2023-10-09T06:16:32;21.73;;;6.20;;
32321;SDS011;61553;48.994;8.940;2023-10-09T06:21:45;14.85;;;5.65;;
32321;SDS011;61553;48.994;8.940;2023-10-09T06:24:17;13.73;;;4.28;;
32321;SDS011;61553;48.994;8.940;2023-10-09T06:26:44;19.15;;;5.57;;
32321;SDS011;61553;48.994;8.940;2023-10-09T06:29:36;19.85;;;4.82;;
32321;SDS011;61553;48.994;8.940;2023-10-09T06:32:16;12.52;;;4.25;;
32321;SDS011;61553;48.994;8.940;2023-10-09T06:34:52;12.75;;;4.70;;
32321;SDS011;61553;48.994;8.940;2023-10-09T06:37:22;14.57;;;6.25;;
32321;SDS011;61553;48.994;8.940;2023-10-09T06:39:51;14.98;;;5.53;;
32321;SDS011;61553;48.994;8.940;2023-10-09T06:42:23;17.05;;;5.18;;
32321;SDS011;61553;48.994;8.940;2023-10-09T06:50:06;13.10;;;6.03;;
32321;SDS011;61553;48.994;8.940;2023-10-09T06:52:58;15.63;;;6.03;;
32321;SDS011;61553;48.994;8.940;2023-10-09T06:55:43;16.10;;;5.65;;
32321;SDS011;61553;48.994;8.940;2023-10-09T07:00:51;20.40;;;5.75;;
32321;SDS011;61553;48.994;8.940;2023-10-09T07:03:23;19.33;;;7.03;;
32321;SDS011;61553;48.994;8.940;2023-10-09T07:06:07;12.35;;;5.55;;
32321;SDS011;61553;48.994;8.940;2023-10-09T07:08:38;20.15;;;6.40;;
32321;SDS011;61553;48.994;8.940;2023-10-09T07:11:06;17.65;;;6.05;;
32321;SDS011;61553;48.994;8.940;2023-10-09T07:13:46;14.65;;;5.43;;
32321;SDS011;61553;48.994;8.940;2023-10-09T07:16:22;14.40;;;6.88;;
32321;SDS011;61553;48.994;8.940;2023-10-09T07:18:54;18.40;;;6.80;;
32321;SDS011;61553;48.994;8.940;2023-10-09T07:21:34;15.75;;;6.60;;
32321;SDS011;61553;48.994;8.940;2023-10-09T07:24:03;17.25;;;5.75;;
32321;SDS011;61553;48.994;8.940;2023-10-09T07:26:39;13.38;;;5.40;;
32321;SDS011;61553;48.994;8.940;2023-10-09T07:29:12;19.73;;;6.32;;
32321;SDS011;61553;48.994;8.940;2023-10-09T07:31:41;19.23;;;6.80;;
32321;SDS011;61553;48.994;8.940;2023-10-09T07:34:10;22.42;;;6.45;;
32321;SDS011;61553;48.994;8.940;2023-10-09T07:36:55;16.27;;;6.80;;
32321;SDS011;61553;48.994;8.940;2023-10-09T07:39:28;19.73;;;6.97;;
32321;SDS011;61553;48.994;8.940;2023-10-09T07:41:59;23.95;;;6.63;;
32321;SDS011;61553;48.994;8.940;2023-10-09T07:44:41;20.30;;;6.25;;
32321;SDS011;61553;48.994;8.940;2023-10-09T07:47:11;27.00;;;7.25;;
32321;SDS011;61553;48.994;8.940;2023-10-09T07:49:48;22.55;;;6.65;;
32321;SDS011;61553;48.994;8.940;2023-10-09T07:52:16;18.33;;;7.38;;
32321;SDS011;61553;48.994;8.940;2023-10-09T07:54:42;36.80;;;13.10;;
32321;SDS011;61553;48.994;8.940;2023-10-09T07:59:42;19.17;;;6.72;;
32321;SDS011;61553;48.994;8.940;2023-10-09T08:02:20;22.90;;;6.57;;
32321;SDS011;61553;48.994;8.940;2023-10-09T08:04:57;21.58;;;7.10;;
32321;SDS011;61553;48.994;8.940;2023-10-09T08:07:28;20.40;;;6.15;;
32321;SDS011;61553;48.994;8.940;2023-10-09T08:10:02;21.10;;;5.72;;
32321;SDS011;61553;48.994;8.940;2023-10-09T08:12:43;20.90;;;6.00;;
32321;SDS011;61553;48.994;8.940;2023-10-09T08:15:15;26.23;;;6.30;;
32321;SDS011;61553;48.994;8.940;2023-10-09T08:17:44;23.80;;;5.28;;
32321;SDS011;61553;48.994;8.940;2023-10-09T08:20:21;17.48;;;5.45;;
32321;SDS011;61553;48.994;8.940;2023-10-09T08:22:54;14.02;;;5.28;;
32321;SDS011;61553;48.994;8.940;2023-10-09T08:28:03;22.42;;;6.85;;
32321;SDS011;61553;48.994;8.940;2023-10-09T08:30:47;30.75;;;6.93;;
32321;SDS011;61553;48.994;8.940;2023-10-09T08:33:28;23.60;;;6.82;;
32321;SDS011;61553;48.994;8.940;2023-10-09T08:36:06;22.17;;;5.82;;
32321;SDS011;61553;48.994;8.940;2023-10-09T08:38:33;16.42;;;5.30;;
32321;SDS011;61553;48.994;8.940;2023-10-09T08:41:06;22.30;;;5.13;;
32321;SDS011;61553;48.994;8.940;2023-10-09T08:43:41;21.63;;;4.38;;
32321;SDS011;61553;48.994;8.940;2023-10-09T08:46:12;21.98;;;4.80;;
32321;SDS011;61553;48.994;8.940;2023-10-09T08:48:43;15.55;;;4.20;;
32321;SDS011;61553;48.994;8.940;2023-10-09T08:51:10;18.90;;;4.10;;
32321;SDS011;61553;48.994;8.940;2023-10-09T08:53:35;23.10;;;4.35;;
32321;SDS011;61553;48.994;8.940;2023-10-09T08:56:09;18.58;;;4.65;;
32321;SDS011;61553;48.994;8.940;2023-10-09T08:58:35;22.58;;;4.50;;
32321;SDS011;61553;48.994;8.940;2023-10-09T09:01:05;17.25;;;3.80;;
32321;SDS011;61553;48.994;8.940;2023-10-09T09:03:40;19.45;;;4.10;;
32321;SDS011;61553;48.994;8.940;2023-10-09T09:06:08;15.35;;;3.88;;
32321;SDS011;61553;48.994;8.940;2023-10-09T09:08:35;19.70;;;3.83;;
32321;SDS011;61553;48.994;8.940;2023-10-09T09:11:05;17.55;;;4.70;;
32321;SDS011;61553;48.994;8.940;2023-10-09T09:13:48;16.98;;;4.03;;
32321;SDS011;61553;48.994;8.940;2023-10-09T09:16:46;11.65;;;3.58;;
32321;SDS011;61553;48.994;8.940;2023-10-09T09:19:14;24.48;;;4.38;;
32321;SDS011;61553;48.994;8.940;2023-10-09T09:21:47;25.35;;;4.75;;
32321;SDS011;61553;48.994;8.940;2023-10-09T09:24:19;17.17;;;4.72;;
32321;SDS011;61553;48.994;8.940;2023-10-09T09:26:48;20.77;;;4.45;;
32321;SDS011;61553;48.994;8.940;2023-10-09T09:32:01;22.52;;;5.00;;
32321;SDS011;61553;48.994;8.940;2023-10-09T09:34:52;16.33;;;4.28;;
32321;SDS011;61553;48.994;8.940;2023-10-09T09:37:30;14.88;;;4.22;;
32321;SDS011;61553;48.994;8.940;2023-10-09T09:40:15;19.70;;;3.75;;
32321;SDS011;61553;48.994;8.940;2023-10-09T09:42:57;14.52;;;3.40;;
32321;SDS011;61553;48.994;8.940;2023-10-09T09:45:34;22.50;;;3.88;;
32321;SDS011;61553;48.994;8.940;2023-10-09T09:48:06;16.10;;;4.07;;
32321;SDS011;61553;48.994;8.940;2023-10-09T09:50:34;21.98;;;4.53;;
32321;SDS011;61553;48.994;8.940;2023-10-09T09:53:08;19.98;;;5.18;;
32321;SDS011;61553;48.994;8.940;2023-10-09T09:55:41;17.98;;;4.40;;
32321;SDS011;61553;48.994;8.940;2023-10-09T09:58:17;15.10;;;4.43;;
32321;SDS011;61553;48.994;8.940;2023-10-09T10:00:48;19.63;;;4.07;;
32321;SDS011;61553;48.994;8.940;2023-10-09T10:03:34;20.08;;;3.83;;
32321;SDS011;61553;48.994;8.940;2023-10-09T10:06:04;20.77;;;4.32;;
32321;SDS011;61553;48.994;8.940;2023-10-09T10:08:35;20.60;;;4.40;;
32321;SDS011;61553;48.994;8.940;2023-10-09T10:11:04;23.00;;;4.45;;
32321;SDS011;61553;48.994;8.940;2023-10-09T10:16:12;19.70;;;4.43;;
32321;SDS011;61553;48.994;8.940;2023-10-09T10:18:57;26.17;;;5.35;;
32321;SDS011;61553;48.994;8.940;2023-10-09T10:21:28;16.75;;;4.07;;
32321;SDS011;61553;48.994;8.940;2023-10-09T10:23:57;19.48;;;4.22;;
32321;SDS011;61553;48.994;8.940;2023-10-09T10:26:35;23.60;;;3.83;;
32321;SDS011;61553;48.994;8.940;2023-10-09T10:29:22;16.92;;;4.28;;
32321;SDS011;61553;48.994;8.940;2023-10-09T10:32:02;15.48;;;3.60;;
32321;SDS011;61553;48.994;8.940;2023-10-09T10:37:41;16.17;;;4.03;;
32321;SDS011;61553;48.994;8.940;2023-10-09T10:40:22;22.63;;;4.43;;
32321;SDS011;61553;48.994;8.940;2023-10-09T10:43:03;20.83;;;5.57;;
32321;SDS011;61553;48.994;8.940;2023-10-09T10:45:38;19.38;;;6.70;;
32321;SDS011;61553;48.994;8.940;2023-10-09T10:48:10;19.02;;;4.57;;
32321;SDS011;61553;48.994;8.940;2023-10-09T10:51:02;20.10;;;4.40;;
32321;SDS011;61553;48.994;8.940;2023-10-09T10:53:31;20.90;;;4.13;;
32321;SDS011;61553;48.994;8.940;2023-10-09T10:56:12;15.20;;;3.55;;
32321;SDS011;61553;48.994;8.940;2023-10-09T10:58:42;14.85;;;3.97;;
32321;SDS011;61553;48.994;8.940;2023-10-09T11:01:36;22.92;;;5.55;;
32321;SDS011;61553;48.994;8.940;2023-10-09T11:04:18;17.77;;;3.75;;
32321;SDS011;61553;48.994;8.940;2023-10-09T11:07:01;15.45;;;3.83;;
32321;SDS011;61553;48.994;8.940;2023-10-09T11:09:50;15.90;;;4.03;;
32321;SDS011;61553;48.994;8.940;2023-10-09T11:12:43;23.95;;;4.32;;
32321;SDS011;61553;48.994;8.940;2023-10-09T11:15:33;13.95;;;4.35;;
32321;SDS011;61553;48.994;8.940;2023-10-09T11:18:09;11.65;;;3.85;;
32321;SDS011;61553;48.994;8.940;2023-10-09T11:20:54;15.05;;;3.78;;
32321;SDS011;61553;48.994;8.940;2023-10-09T11:23:27;14.05;;;4.28;;
32321;SDS011;61553;48.994;8.940;2023-10-09T11:25:59;15.35;;;4.35;;
32321;SDS011;61553;48.994;8.940;2023-10-09T11:34:27;19.80;;;4.60;;
32321;SDS011;61553;48.994;8.940;2023-10-09T11:39:38;12.95;;;3.47;;
32321;SDS011;61553;48.994;8.940;2023-10-09T11:42:20;18.95;;;4.50;;
32321;SDS011;61553;48.994;8.940;2023-10-09T11:45:03;18.05;;;4.82;;
32321;SDS011;61553;48.994;8.940;2023-10-09T11:47:53;13.48;;;4.10;;
32321;SDS011;61553;48.994;8.940;2023-10-09T11:50:45;14.40;;;3.95;;
32321;SDS011;61553;48.994;8.940;2023-10-09T11:53:14;14.60;;;4.03;;
32321;SDS011;61553;48.994;8.940;2023-10-09T11:55:58;21.63;;;4.15;;
32321;SDS011;61553;48.994;8.940;2023-10-09T11:58:24;14.13;;;3.92;;
32321;SDS011;61553;48.994;8.940;2023-10-09T12:03:28;10.02;;;3.60;;
32321;SDS011;61553;48.994;8.940;2023-10-09T12:05:55;14.35;;;3.95;;
32321;SDS011;61553;48.994;8.940;2023-10-09T12:08:23;14.85;;;4.85;;
32321;SDS011;61553;48.994;8.940;2023-10-09T12:10:52;19.63;;;4.38;;
32321;SDS011;61553;48.994;8.940;2023-10-09T12:13:21;20.20;;;4.20;;
32321;SDS011;61553;48.994;8.940;2023-10-09T12:15:48;14.13;;;3.95;;
32321;SDS011;61553;48.994;8.940;2023-10-09T12:18:18;16.33;;;5.07;;
32321;SDS011;61553;48.994;8.940;2023-10-09T12:20:45;14.82;;;4.40;;
32321;SDS011;61553;48.994;8.940;2023-10-09T12:25:44;17.08;;;4.55;;
32321;SDS011;61553;48.994;8.940;2023-10-09T12:28:10;17.88;;;3.67;;
32321;SDS011;61553;48.994;8.940;2023-10-09T12:30:37;25.35;;;4.90;;
32321;SDS011;61553;48.994;8.940;2023-10-09T12:33:06;17.23;;;4.53;;
32321;SDS011;61553;48.994;8.940;2023-10-09T12:35:37;16.25;;;4.88;;
32321;SDS011;61553;48.994;8.940;2023-10-09T12:38:04;18.50;;;5.05;;
32321;SDS011;61553;48.994;8.940;2023-10-09T12:40:37;32.17;;;5.15;;
32321;SDS011;61553;48.994;8.940;2023-10-09T12:43:06;21.85;;;5.18;;
32321;SDS011;61553;48.994;8.940;2023-10-09T12:45:40;21.90;;;4.82;;
32321;SDS011;61553;48.994;8.940;2023-10-09T12:48:07;33.83;;;4.95;;
32321;SDS011;61553;48.994;8.940;2023-10-09T12:50:35;29.27;;;5.57;;
32321;SDS011;61553;48.994;8.940;2023-10-09T12:53:06;22.73;;;4.95;;
32321;SDS011;61553;48.994;8.940;2023-10-09T12:55:39;17.23;;;4.15;;
32321;SDS011;61553;48.994;8.940;2023-10-09T12:58:10;18.42;;;4.82;;
32321;SDS011;61553;48.994;8.940;2023-10-09T13:00:40;23.90;;;4.88;;
32321;SDS011;61553;48.994;8.940;2023-10-09T13:03:13;19.63;;;4.88;;
32321;SDS011;61553;48.994;8.940;2023-10-09T13:05:52;22.10;;;4.47;;
32321;SDS011;61553;48.994;8.940;2023-10-09T13:08:30;20.75;;;5.03;;
32321;SDS011;61553;48.994;8.940;2023-10-09T13:11:02;24.63;;;5.30;;
32321;SDS011;61553;48.994;8.940;2023-10-09T13:13:42;15.35;;;5.30;;
32321;SDS011;61553;48.994;8.940;2023-10-09T13:18:53;18.45;;;4.95;;
32321;SDS011;61553;48.994;8.940;2023-10-09T13:21:20;22.88;;;5.20;;
32321;SDS011;61553;48.994;8.940;2023-10-09T13:23:59;16.65;;;5.13;;
32321;SDS011;61553;48.994;8.940;2023-10-09T13:26:26;27.20;;;5.70;;
32321;SDS011;61553;48.994;8.940;2023-10-09T13:28:56;22.35;;;5.82;;
32321;SDS011;61553;48.994;8.940;2023-10-09T13:31:23;21.70;;;5.95;;
32321;SDS011;61553;48.994;8.940;2023-10-09T13:33:51;27.70;;;6.20;;
32321;SDS011;61553;48.994;8.940;2023-10-09T13:36:20;22.42;;;6.28;;
32321;SDS011;61553;48.994;8.940;2023-10-09T13:38:56;16.30;;;5.53;;
32321;SDS011;61553;48.994;8.940;2023-10-09T13:41:22;19.20;;;6.03;;
32321;SDS011;61553;48.994;8.940;2023-10-09T13:43:54;15.45;;;5.35;;
32321;SDS011;61553;48.994;8.940;2023-10-09T13:46:21;12.68;;;5.00;;
32321;SDS011;61553;48.994;8.940;2023-10-09T13:48:48;17.05;;;5.63;;
32321;SDS011;61553;48.994;8.940;2023-10-09T13:51:14;19.90;;;6.00;;
32321;SDS011;61553;48.994;8.940;2023-10-09T13:53:46;16.40;;;7.35;;
32321;SDS011;61553;48.994;8.940;2023-10-09T13:58:40;13.45;;;5.85;;
32321;SDS011;61553;48.994;8.940;2023-10-09T14:01:08;21.00;;;5.80;;
32321;SDS011;61553;48.994;8.940;2023-10-09T14:03:34;18.70;;;6.20;;
32321;SDS011;61553;48.994;8.940;2023-10-09T14:05:59;16.92;;;5.93;;
32321;SDS011;61553;48.994;8.940;2023-10-09T14:08:35;20.80;;;6.30;;
32321;SDS011;61553;48.994;8.940;2023-10-09T14:11:07;15.48;;;6.00;;
32321;SDS011;61553;48.994;8.940;2023-10-09T14:13:38;15.57;;;5.75;;
32321;SDS011;61553;48.994;8.940;2023-10-09T14:16:05;19.08;;;5.53;;
32321;SDS011;61553;48.994;8.940;2023-10-09T14:18:31;20.23;;;6.13;;
32321;SDS011;61553;48.994;8.940;2023-10-09T14:21:01;18.70;;;5.45;;
32321;SDS011;61553;48.994;8.940;2023-10-09T14:23:35;17.15;;;6.05;;
32321;SDS011;61553;48.994;8.940;2023-10-09T14:26:00;16.30;;;5.88;;
32321;SDS011;61553;48.994;8.940;2023-10-09T14:28:31;20.00;;;5.45;;
32321;SDS011;61553;48.994;8.940;2023-10-09T14:30:56;16.10;;;5.72;;
32321;SDS011;61553;48.994;8.940;2023-10-09T14:33:25;14.90;;;5.90;;
32321;SDS011;61553;48.994;8.940;2023-10-09T14:35:54;18.67;;;6.90;;
32321;SDS011;61553;48.994;8.940;2023-10-09T14:38:20;21.67;;;5.93;;
32321;SDS011;61553;48.994;8.940;2023-10-09T14:40:52;20.95;;;5.75;;
32321;SDS011;61553;48.994;8.940;2023-10-09T14:43:22;23.02;;;6.75;;
32321;SDS011;61553;48.994;8.940;2023-10-09T14:45:53;19.15;;;6.45;;
32321;SDS011;61553;48.994;8.940;2023-10-09T14:48:19;21.83;;;6.00;;
32321;SDS011;61553;48.994;8.940;2023-10-09T14:50:52;16.80;;;6.60;;
32321;SDS011;61553;48.994;8.940;2023-10-09T14:53:21;24.13;;;5.80;;
32321;SDS011;61553;48.994;8.940;2023-10-09T14:55:57;29.67;;;6.90;;
32321;SDS011;61553;48.994;8.940;2023-10-09T14:58:26;21.65;;;5.15;;
32321;SDS011;61553;48.994;8.940;2023-10-09T15:00:54;19.45;;;5.40;;
32321;SDS011;61553;48.994;8.940;2023-10-09T15:03:20;19.42;;;5.13;;
32321;SDS011;61553;48.994;8.940;2023-10-09T15:05:47;25.45;;;6.63;;
32321;SDS011;61553;48.994;8.940;2023-10-09T15:08:12;27.15;;;6.32;;
32321;SDS011;61553;48.994;8.940;2023-10-09T15:10:48;22.83;;;7.15;;
32321;SDS011;61553;48.994;8.940;2023-10-09T15:13:17;22.17;;;6.57;;
32321;SDS011;61553;48.994;8.940;2023-10-09T15:15:43;34.25;;;5.72;;
32321;SDS011;61553;48.994;8.940;2023-10-09T15:18:10;30.33;;;6.35;;
32321;SDS011;61553;48.994;8.940;2023-10-09T15:20:38;22.95;;;6.40;;
32321;SDS011;61553;48.994;8.940;2023-10-09T15:23:05;34.45;;;6.70;;
32321;SDS011;61553;48.994;8.940;2023-10-09T15:25:32;32.47;;;6.78;;
32321;SDS011;61553;48.994;8.940;2023-10-09T15:27:59;23.10;;;5.75;;
32321;SDS011;61553;48.994;8.940;2023-10-09T15:30:25;23.02;;;6.15;;
32321;SDS011;61553;48.994;8.940;2023-10-09T15:32:53;25.13;;;7.15;;
32321;SDS011;61553;48.994;8.940;2023-10-09T15:35:21;27.98;;;6.63;;
32321;SDS011;61553;48.994;8.940;2023-10-09T15:37:47;31.63;;;6.35;;
32321;SDS011;61553;48.994;8.940;2023-10-09T15:40:13;34.17;;;6.75;;
32321;SDS011;61553;48.994;8.940;2023-10-09T15:42:42;30.92;;;6.00;;
32321;SDS011;61553;48.994;8.940;2023-10-09T15:45:12;31.83;;;6.57;;
32321;SDS011;61553;48.994;8.940;2023-10-09T15:47:38;25.33;;;6.00;;
32321;SDS011;61553;48.994;8.940;2023-10-09T15:50:04;27.88;;;5.70;;
32321;SDS011;61553;48.994;8.940;2023-10-09T15:52:34;23.60;;;5.90;;
32321;SDS011;61553;48.994;8.940;2023-10-09T15:54:59;23.98;;;5.47;;